Time;durP1;ratioP1;P1;durP2;ratioP2;P2;SDS_P1;SDS_P2;PMS_P1;PMS_P2;Temp;Humidity;BMP_temperature;BMP_pressure;BME280_temperature;BME280_humidity;BME280_pressure;Samples;Min_cycle;Max_cycle;Signal;HPM_P1;HPM_P2
2022/02/15 00:00:35;;;;;;;50.15;24.42;;;-1.50;99.90;;;;;;5015469;28;20037;-79
2022/02/15 00:03:01;;;;;;;43.47;23.30;;;-1.50;99.90;;;;;;5015326;28;20025;-80
2022/02/15 00:05:27;;;;;;;54.25;24.85;;;-1.60;99.90;;;;;;5015209;28;20040;-80
2022/02/15 00:07:53;;;;;;;49.65;23.63;;;-1.60;99.90;;;;;;5015165;28;20384;-80
2022/02/15 00:10:18;;;;;;;45.45;25.65;;;-1.60;99.90;;;;;;5013910;28;20037;-74
2022/02/15 00:12:44;;;;;;;46.88;25.40;;;-1.60;99.90;;;;;;5015099;28;20030;-73
2022/02/15 00:15:11;;;;;;;57.78;25.05;;;-1.60;99.90;;;;;;5015145;28;20033;-73
2022/02/15 00:17:39;;;;;;;60.97;25.10;;;-1.70;99.90;;;;;;5015033;28;20104;-80
2022/02/15 00:20:07;;;;;;;49.42;24.33;;;-1.70;99.90;;;;;;5013797;28;20029;-79
2022/02/15 00:22:33;;;;;;;50.55;24.15;;;-1.70;99.90;;;;;;5015086;28;20116;-79
2022/02/15 00:24:58;;;;;;;50.40;23.58;;;-1.70;99.90;;;;;;5014814;28;20049;-74
2022/02/15 00:27:24;;;;;;;47.47;24.27;;;-1.70;99.90;;;;;;5014871;28;20471;-73
2022/02/15 00:29:50;;;;;;;48.60;23.80;;;-1.70;99.90;;;;;;5013563;28;20041;-80
2022/02/15 00:32:16;;;;;;;47.80;23.73;;;-1.70;99.90;;;;;;5014714;28;20438;-73
2022/02/15 00:34:41;;;;;;;48.75;24.25;;;-1.70;99.90;;;;;;5014733;28;20034;-74
2022/02/15 00:37:07;;;;;;;55.63;25.95;;;-1.70;99.90;;;;;;5014752;28;20030;-73
2022/02/15 00:39:32;;;;;;;65.40;28.65;;;-1.70;99.90;;;;;;5014993;28;20029;-73
2022/02/15 00:41:59;;;;;;;52.88;23.88;;;-1.70;99.90;;;;;;5014573;28;20034;-80
2022/02/15 00:44:26;;;;;;;40.80;22.60;;;-1.70;99.90;;;;;;5014559;28;20105;-80
2022/02/15 00:46:52;;;;;;;43.03;23.45;;;-1.70;99.90;;;;;;5013288;28;20026;-80
2022/02/15 00:49:18;;;;;;;44.45;21.92;;;-1.60;99.90;;;;;;5014327;28;20030;-73
2022/02/15 00:51:43;;;;;;;48.35;23.38;;;-1.70;99.90;;;;;;5014500;28;20582;-73
2022/02/15 00:54:09;;;;;;;54.35;25.58;;;-1.70;99.90;;;;;;5014563;28;20391;-80
2022/02/15 00:56:35;;;;;;;65.40;27.02;;;-1.70;99.90;;;;;;5014344;28;20018;-80
2022/02/15 00:59:00;;;;;;;149.15;58.15;;;-1.70;99.90;;;;;;5014431;28;20026;-74
2022/02/15 01:01:26;;;;;;;68.47;27.85;;;-1.80;99.90;;;;;;5014284;28;20036;-73
2022/02/15 01:03:52;;;;;;;52.53;24.08;;;-1.80;99.90;;;;;;5012994;28;20026;-79
2022/02/15 01:06:17;;;;;;;50.67;23.92;;;-1.80;99.90;;;;;;5014260;28;20022;-74
2022/02/15 01:08:45;;;;;;;42.83;21.48;;;-1.80;99.90;;;;;;5013089;28;20113;-80
2022/02/15 01:11:11;;;;;;;52.40;24.42;;;-1.80;99.90;;;;;;5012836;28;20037;-79
2022/02/15 01:13:37;;;;;;;88.57;37.95;;;-1.80;99.90;;;;;;5012980;28;20022;-80
2022/02/15 01:16:03;;;;;;;63.63;30.50;;;-1.90;99.90;;;;;;5014156;28;20029;-80
2022/02/15 01:18:28;;;;;;;53.17;25.08;;;-1.90;99.90;;;;;;5012672;28;20018;-73
2022/02/15 01:20:55;;;;;;;55.28;24.80;;;-1.90;99.90;;;;;;5012359;28;20018;-79
2022/02/15 01:23:21;;;;;;;53.58;26.30;;;-1.90;99.90;;;;;;5013977;28;20025;-79
2022/02/15 01:25:47;;;;;;;49.70;26.00;;;-2.00;99.90;;;;;;5012672;28;20025;-80
2022/02/15 01:28:14;;;;;;;50.17;24.40;;;-2.00;99.90;;;;;;5013879;28;20483;-80
2022/02/15 01:30:40;;;;;;;51.00;24.20;;;-2.00;99.90;;;;;;5013767;28;20037;-79
2022/02/15 01:33:06;;;;;;;40.20;22.60;;;-2.00;99.90;;;;;;5012501;28;20030;-79
2022/02/15 01:35:31;;;;;;;49.30;22.65;;;-2.00;99.90;;;;;;5012635;28;20024;-73
2022/02/15 01:37:58;;;;;;;45.97;23.30;;;-1.90;99.90;;;;;;5013848;28;20034;-73
2022/02/15 01:40:23;;;;;;;49.65;23.42;;;-1.90;99.90;;;;;;5013732;28;20041;-74
2022/02/15 01:42:49;;;;;;;50.22;24.38;;;-1.90;99.90;;;;;;5013674;28;20026;-73
2022/02/15 01:45:17;;;;;;;51.25;24.30;;;-1.90;99.90;;;;;;5013667;28;20360;-79
2022/02/15 01:47:44;;;;;;;55.85;25.30;;;-1.90;99.90;;;;;;5012229;28;20022;-73
2022/02/15 01:50:11;;;;;;;58.85;27.15;;;-1.90;99.90;;;;;;5013192;28;20049;-80
2022/02/15 01:52:37;;;;;;;48.03;22.95;;;-1.90;99.90;;;;;;5013534;28;20387;-79
2022/02/15 01:55:06;;;;;;;50.65;24.33;;;-1.90;99.90;;;;;;5012316;28;20117;-73
2022/02/15 01:57:32;;;;;;;42.92;23.20;;;-1.90;99.90;;;;;;5012246;28;20072;-73
2022/02/15 01:59:58;;;;;;;46.38;21.00;;;-2.00;99.90;;;;;;5013488;28;20062;-80
2022/02/15 02:02:26;;;;;;;41.63;21.58;;;-2.00;99.90;;;;;;5012283;28;20072;-80
2022/02/15 02:07:36;;;;;;;50.28;24.02;;;-1.90;99.90;;;;;;5013607;28;20049;-80
2022/02/15 02:10:03;;;;;;;42.30;21.77;;;-1.90;99.90;;;;;;5013250;28;20042;-80
2022/02/15 02:12:28;;;;;;;42.75;22.00;;;-1.80;99.90;;;;;;5013401;28;20026;-78
2022/02/15 02:15:06;;;;;;;46.80;22.13;;;-1.90;99.90;;;;;;5012275;28;20034;-74
2022/02/15 02:17:32;;;;;;;58.75;26.17;;;-1.80;99.90;;;;;;5013538;28;20117;-73
2022/02/15 02:19:58;;;;;;;58.70;28.17;;;-1.90;99.90;;;;;;5013435;28;20044;-79
2022/02/15 02:22:25;;;;;;;46.75;23.70;;;-2.00;99.90;;;;;;5012216;28;20022;-77
2022/02/15 02:24:55;;;;;;;46.95;23.20;;;-2.10;99.90;;;;;;5012007;28;20112;-73
2022/02/15 02:27:32;;;;;;;42.85;20.05;;;-2.10;99.90;;;;;;5013380;28;20026;-73
2022/02/15 02:29:59;;;;;;;38.75;20.00;;;-2.00;99.90;;;;;;5013283;28;20499;-72
2022/02/15 02:32:26;;;;;;;41.75;21.52;;;-2.00;99.90;;;;;;5014442;28;20160;-72
2022/02/15 02:34:53;;;;;;;41.88;20.65;;;-1.90;99.90;;;;;;5016998;28;20033;-72
2022/02/15 02:37:19;;;;;;;39.38;21.33;;;-1.80;99.90;;;;;;5015538;28;20024;-79
2022/02/15 02:39:48;;;;;;;44.38;20.77;;;-1.70;99.90;;;;;;5016936;28;20026;-72
2022/02/15 02:42:17;;;;;;;39.05;21.60;;;-1.70;99.90;;;;;;5030081;28;20049;-79
2022/02/15 02:44:42;;;;;;;42.15;21.90;;;-1.70;99.90;;;;;;5036705;28;20049;-80
2022/02/15 02:47:08;;;;;;;38.70;20.63;;;-1.70;99.90;;;;;;5036494;28;20187;-73
2022/02/15 02:49:34;;;;;;;41.58;22.20;;;-1.70;99.90;;;;;;5035092;28;20047;-73
2022/02/15 02:52:00;;;;;;;38.90;22.13;;;-1.70;99.90;;;;;;5035226;28;20056;-80
2022/02/15 02:54:26;;;;;;;40.88;21.00;;;-1.70;99.90;;;;;;5036602;28;20037;-78
2022/02/15 02:56:53;;;;;;;42.90;22.27;;;-1.70;99.90;;;;;;5036350;28;20032;-80
2022/02/15 02:59:19;;;;;;;54.80;26.85;;;-1.80;99.90;;;;;;5036399;28;20391;-80
2022/02/15 03:01:45;;;;;;;49.65;24.63;;;-1.80;99.90;;;;;;5036304;28;20032;-79
2022/02/15 03:04:11;;;;;;;44.30;24.20;;;-1.80;99.90;;;;;;5036314;28;20100;-74
2022/02/15 03:06:36;;;;;;;41.42;22.40;;;-1.90;99.90;;;;;;5034833;28;20461;-76
2022/02/15 03:09:03;;;;;;;50.85;23.52;;;-1.80;99.90;;;;;;5036145;28;20105;-74
2022/02/15 03:11:29;;;;;;;44.60;22.17;;;-1.90;99.90;;;;;;5034723;28;20399;-80
2022/02/15 03:13:54;;;;;;;45.10;25.90;;;-2.00;99.90;;;;;;5036017;28;20026;-73
2022/02/15 03:16:23;;;;;;;44.85;22.35;;;-2.00;99.90;;;;;;5036069;28;20025;-80
2022/02/15 03:18:49;;;;;;;48.42;24.33;;;-2.10;99.90;;;;;;5036089;28;20470;-79
2022/02/15 03:21:14;;;;;;;44.05;23.10;;;-2.10;99.90;;;;;;5035987;28;20471;-80
2022/02/15 03:23:41;;;;;;;45.38;23.52;;;-2.10;99.90;;;;;;5035953;28;20021;-72
2022/02/15 03:26:06;;;;;;;42.40;22.02;;;-2.10;99.90;;;;;;5035768;28;20029;-73
2022/02/15 03:28:32;;;;;;;42.30;21.38;;;-2.20;99.90;;;;;;5035889;28;20415;-79
2022/02/15 03:30:58;;;;;;;39.30;21.70;;;-2.20;99.90;;;;;;5035619;28;20037;-79
2022/02/15 03:33:24;;;;;;;41.65;21.92;;;-2.10;99.90;;;;;;5035585;28;20075;-73
2022/02/15 03:35:50;;;;;;;37.80;19.98;;;-2.10;99.90;;;;;;5034345;28;20021;-74
2022/02/15 03:38:15;;;;;;;46.22;22.65;;;-2.20;99.90;;;;;;5035765;28;20021;-72
2022/02/15 03:43:25;;;;;;;41.28;23.08;;;-2.10;99.90;;;;;;5035490;28;20043;-80
2022/02/15 03:45:50;;;;;;;45.72;22.67;;;-2.20;99.90;;;;;;5034332;28;20104;-79
2022/02/15 03:48:16;;;;;;;44.58;22.33;;;-2.30;99.90;;;;;;5035431;28;20560;-73
2022/02/15 03:50:42;;;;;;;43.25;21.52;;;-2.20;99.90;;;;;;5035155;28;20153;-72
2022/02/15 03:53:07;;;;;;;42.03;22.95;;;-2.20;99.90;;;;;;5033934;28;20509;-80
2022/02/15 03:55:33;;;;;;;38.28;20.08;;;-2.30;99.90;;;;;;5035252;28;20022;-79
2022/02/15 03:57:59;;;;;;;42.75;20.38;;;-2.30;99.90;;;;;;5035342;28;20455;-79
2022/02/15 04:00:24;;;;;;;88.28;24.40;;;-2.30;99.90;;;;;;5033950;28;20441;-74
2022/02/15 04:02:50;;;;;;;46.85;21.30;;;-2.30;99.90;;;;;;5035138;28;20493;-72
2022/02/15 04:05:16;;;;;;;40.00;19.48;;;-2.40;99.90;;;;;;5033821;28;20028;-80
2022/02/15 04:07:41;;;;;;;39.33;21.40;;;-2.40;99.90;;;;;;5035142;28;20108;-73
2022/02/15 04:10:07;;;;;;;39.75;19.08;;;-2.40;99.90;;;;;;5034978;28;20033;-72
2022/02/15 04:12:33;;;;;;;39.35;20.38;;;-2.50;99.90;;;;;;5035047;28;20059;-73
2022/02/15 04:14:59;;;;;;;39.78;20.75;;;-2.50;99.90;;;;;;5034990;28;20029;-80
2022/02/15 04:17:25;;;;;;;36.70;21.35;;;-2.50;99.90;;;;;;5033658;28;20021;-80
2022/02/15 04:19:50;;;;;;;36.00;21.27;;;-2.60;99.90;;;;;;5035007;28;20459;-73
2022/02/15 04:22:16;;;;;;;49.17;24.05;;;-2.60;99.90;;;;;;5033524;28;20030;-78
2022/02/15 04:24:41;;;;;;;49.35;21.83;;;-2.60;99.90;;;;;;5033568;28;20045;-75
2022/02/15 04:27:07;;;;;;;51.05;22.42;;;-2.70;99.90;;;;;;5034671;28;20482;-72
2022/02/15 04:29:32;;;;;;;47.97;23.60;;;-2.70;99.90;;;;;;5034857;28;20445;-79
2022/02/15 04:31:58;;;;;;;42.25;21.45;;;-2.80;99.90;;;;;;5033420;28;20048;-79
2022/02/15 04:34:24;;;;;;;43.55;20.48;;;-2.80;99.90;;;;;;5034584;28;20028;-80
2022/02/15 04:36:49;;;;;;;39.88;20.42;;;-2.90;99.90;;;;;;5034456;28;20048;-73
2022/02/15 04:39:15;;;;;;;39.20;20.90;;;-2.90;99.90;;;;;;5034490;28;20032;-79
2022/02/15 04:41:40;;;;;;;44.95;20.05;;;-3.00;99.90;;;;;;5033266;28;20419;-80
2022/02/15 04:44:07;;;;;;;43.28;21.77;;;-3.00;99.90;;;;;;5033029;28;20052;-80
2022/02/15 04:46:33;;;;;;;44.70;21.23;;;-3.00;99.90;;;;;;5033055;28;20478;-80
2022/02/15 04:48:59;;;;;;;43.10;22.30;;;-3.00;99.90;;;;;;5033021;28;20036;-74
2022/02/15 04:51:25;;;;;;;41.83;23.50;;;-3.00;99.90;;;;;;5033932;28;20049;-80
2022/02/15 04:53:51;;;;;;;44.50;23.75;;;-3.00;99.90;;;;;;5034226;28;20032;-73
2022/02/15 04:56:17;;;;;;;47.08;24.75;;;-2.90;99.90;;;;;;5033397;28;20025;-78
2022/02/15 04:58:43;;;;;;;46.50;22.95;;;-2.90;99.90;;;;;;5032712;28;20021;-80
2022/02/15 05:01:08;;;;;;;49.42;23.45;;;-2.90;99.90;;;;;;5033896;28;20100;-74
2022/02/15 05:03:34;;;;;;;51.90;23.10;;;-2.80;99.90;;;;;;5034093;28;20026;-80
2022/02/15 05:05:59;;;;;;;46.53;22.98;;;-2.90;99.90;;;;;;5032729;28;20428;-73
2022/02/15 05:08:25;;;;;;;48.83;24.40;;;-3.00;99.90;;;;;;5032706;28;20627;-80
2022/02/15 05:10:51;;;;;;;47.45;23.45;;;-3.00;99.90;;;;;;5033663;28;20029;-78
2022/02/15 05:13:16;;;;;;;45.92;24.42;;;-3.10;99.90;;;;;;5032561;28;20021;-73
2022/02/15 05:15:43;;;;;;;54.10;26.02;;;-3.10;99.90;;;;;;5033976;28;20037;-80
2022/02/15 05:18:09;;;;;;;50.90;24.45;;;-3.00;99.90;;;;;;5032359;28;20032;-73
2022/02/15 05:20:35;;;;;;;47.85;24.58;;;-2.90;99.90;;;;;;5033577;28;20021;-79
2022/02/15 05:23:01;;;;;;;41.45;23.75;;;-2.80;99.90;;;;;;5032499;28;20022;-80
2022/02/15 05:25:27;;;;;;;84.00;41.78;;;-2.70;99.90;;;;;;5033675;28;20032;-80
2022/02/15 05:27:53;;;;;;;182.27;85.07;;;-2.70;99.90;;;;;;5033640;28;20025;-73
2022/02/15 05:30:19;;;;;;;171.77;84.18;;;-2.80;99.90;;;;;;5033520;28;20040;-73
2022/02/15 05:32:45;;;;;;;157.15;75.53;;;-2.80;99.90;;;;;;5033548;28;20466;-79
2022/02/15 05:35:10;;;;;;;74.07;36.45;;;-2.90;99.90;;;;;;5032267;28;20029;-73
2022/02/15 05:37:36;;;;;;;61.05;31.02;;;-2.90;99.90;;;;;;5033443;28;20429;-79
2022/02/15 05:40:04;;;;;;;84.32;41.38;;;-2.90;99.90;;;;;;5032087;28;20116;-80
2022/02/15 05:42:30;;;;;;;81.40;36.90;;;-3.00;99.90;;;;;;5033396;28;20026;-79
2022/02/15 05:44:55;;;;;;;79.50;38.78;;;-3.00;99.90;;;;;;5033354;28;20479;-75
2022/02/15 05:47:21;;;;;;;105.20;41.08;;;-3.00;99.90;;;;;;5033323;28;20037;-73
2022/02/15 05:52:30;;;;;;;80.05;36.88;;;-3.20;99.90;;;;;;5033556;28;20501;-79
2022/02/15 05:54:56;;;;;;;93.93;36.15;;;-3.20;99.90;;;;;;5031893;28;20120;-80
2022/02/15 05:57:21;;;;;;;73.03;32.88;;;-3.30;99.90;;;;;;5033225;28;20026;-72
2022/02/15 05:59:47;;;;;;;66.80;29.42;;;-3.40;99.90;;;;;;5033286;28;20026;-80
2022/02/15 06:02:13;;;;;;;67.80;29.60;;;-3.40;99.90;;;;;;5031884;28;20383;-73
2022/02/15 06:04:39;;;;;;;56.08;28.13;;;-3.40;99.90;;;;;;5033167;28;20108;-79
2022/02/15 06:07:05;;;;;;;152.60;52.78;;;-3.40;99.90;;;;;;5034306;28;20037;-80
2022/02/15 06:09:31;;;;;;;128.55;46.85;;;-3.40;99.90;;;;;;5037189;28;20028;-80
2022/02/15 06:11:56;;;;;;;107.03;41.88;;;-3.50;99.90;;;;;;5036909;28;20061;-79
2022/02/15 06:14:22;;;;;;;107.45;39.40;;;-3.60;99.90;;;;;;5035659;28;20076;-80
2022/02/15 06:16:48;;;;;;;161.63;56.28;;;-3.60;99.90;;;;;;5035616;28;20471;-79
2022/02/15 06:19:13;;;;;;;173.80;57.60;;;-3.60;99.90;;;;;;5035708;28;20068;-80
2022/02/15 06:21:39;;;;;;;204.93;62.30;;;-3.60;99.90;;;;;;5036708;28;20048;-79
2022/02/15 06:24:04;;;;;;;226.43;64.50;;;-3.60;99.90;;;;;;5027120;28;20467;-72
2022/02/15 06:26:30;;;;;;;254.68;75.78;;;-3.60;99.90;;;;;;5015671;28;20033;-79
2022/02/15 06:28:57;;;;;;;175.38;58.53;;;-3.60;99.90;;;;;;5014999;28;20040;-72
2022/02/15 06:31:23;;;;;;;163.05;58.05;;;-3.60;99.90;;;;;;5015290;28;20135;-73
2022/02/15 06:33:49;;;;;;;138.18;51.03;;;-3.60;99.90;;;;;;5015426;28;20049;-73
2022/02/15 06:36:24;;;;;;;66.65;30.95;;;-3.50;99.90;;;;;;5015626;28;20116;-74
2022/02/15 06:38:50;;;;;;;67.47;29.25;;;-3.50;99.90;;;;;;5015105;28;20391;-73
2022/02/15 06:41:15;;;;;;;95.07;38.72;;;-3.50;99.90;;;;;;5015797;28;20038;-80
2022/02/15 06:43:41;;;;;;;96.05;41.40;;;-3.40;99.90;;;;;;5015524;28;20033;-73
2022/02/15 06:46:07;;;;;;;105.47;45.08;;;-3.40;99.90;;;;;;5015900;28;20080;-79
2022/02/15 06:48:32;;;;;;;106.15;45.42;;;-3.30;99.90;;;;;;5031170;28;20426;-74
2022/02/15 06:50:58;;;;;;;113.20;46.38;;;-3.30;99.90;;;;;;5015146;28;20545;-73
2022/02/15 06:53:23;;;;;;;113.75;45.70;;;-3.20;99.90;;;;;;5013047;28;20033;-74
2022/02/15 06:55:49;;;;;;;125.00;50.70;;;-3.10;99.90;;;;;;5014139;28;20030;-74
2022/02/15 06:58:15;;;;;;;130.85;49.90;;;-3.00;99.90;;;;;;5015707;28;20022;-73
2022/02/15 07:00:40;;;;;;;133.05;58.25;;;-2.80;99.90;;;;;;5014847;28;20018;-75
2022/02/15 07:03:06;;;;;;;344.30;139.15;;;-2.70;99.90;;;;;;5015115;28;20036;-74
2022/02/15 07:05:31;;;;;;;605.08;258.33;;;-2.60;99.90;;;;;;5015116;28;20108;-80
2022/02/15 07:07:57;;;;;;;488.08;186.23;;;-2.40;99.90;;;;;;5013509;28;20025;-74
2022/02/15 07:10:22;;;;;;;418.48;164.43;;;-2.30;99.90;;;;;;5012116;28;20444;-75
2022/02/15 07:12:48;;;;;;;266.52;108.20;;;-2.20;99.90;;;;;;5012425;28;20033;-74
2022/02/15 07:15:14;;;;;;;301.50;114.85;;;-2.00;99.90;;;;;;5013008;28;20387;-79
2022/02/15 07:17:41;;;;;;;318.35;123.53;;;-1.90;99.90;;;;;;5012229;28;20060;-73
2022/02/15 07:20:08;;;;;;;407.45;165.95;;;-1.70;99.90;;;;;;5012832;28;20041;-74
2022/02/15 07:22:35;;;;;;;288.67;118.07;;;-1.60;99.90;;;;;;5012686;28;20026;-80
2022/02/15 07:25:02;;;;;;;207.50;83.97;;;-1.50;99.90;;;;;;5011473;28;20075;-80
2022/02/15 07:27:32;;;;;;;226.65;87.50;;;-1.30;99.90;;;;;;5015517;28;20034;-77
2022/02/15 07:29:57;;;;;;;320.90;124.15;;;-1.10;99.90;;;;;;5014327;28;20038;-80
2022/02/15 07:32:26;;;;;;;293.10;115.60;;;-0.90;99.90;;;;;;5012550;28;20045;-80
2022/02/15 07:34:53;;;;;;;243.13;97.50;;;-0.80;99.90;;;;;;5013920;28;20034;-80
2022/02/15 07:37:20;;;;;;;196.73;80.78;;;-0.70;99.90;;;;;;5014019;28;20025;-74
2022/02/15 07:39:45;;;;;;;314.15;121.68;;;-0.50;99.90;;;;;;5014412;28;20022;-74
2022/02/15 07:42:11;;;;;;;287.35;111.13;;;-0.40;99.90;;;;;;5013553;28;20036;-80
2022/02/15 07:44:37;;;;;;;252.30;99.95;;;-0.20;99.90;;;;;;5015217;28;20022;-75
2022/02/15 07:47:03;;;;;;;275.00;114.43;;;0.00;99.90;;;;;;5014323;28;20022;-74
2022/02/15 07:49:31;;;;;;;263.45;106.43;;;0.10;99.90;;;;;;5014031;28;20030;-74
2022/02/15 07:51:57;;;;;;;174.77;68.72;;;0.30;99.90;;;;;;5015405;28;20040;-80
2022/02/15 07:54:23;;;;;;;230.70;90.72;;;0.50;99.90;;;;;;5015404;28;20022;-74
2022/02/15 07:56:49;;;;;;;167.15;69.93;;;0.70;99.90;;;;;;5015125;28;20022;-80
2022/02/15 07:59:14;;;;;;;104.07;47.28;;;0.90;99.90;;;;;;5015367;28;20036;-75
2022/02/15 08:01:40;;;;;;;84.32;39.70;;;1.00;99.90;;;;;;5014011;28;20479;-80
2022/02/15 08:04:06;;;;;;;68.13;32.70;;;1.20;99.90;;;;;;5014030;28;20022;-80
2022/02/15 08:06:32;;;;;;;79.45;38.50;;;1.40;99.90;;;;;;5015219;28;20033;-74
2022/02/15 08:08:58;;;;;;;76.20;35.75;;;1.60;99.90;;;;;;5015324;28;20505;-81
2022/02/15 08:11:24;;;;;;;81.38;34.50;;;1.70;99.90;;;;;;5014945;28;20045;-75
2022/02/15 08:13:51;;;;;;;89.32;42.38;;;1.90;99.90;;;;;;5013727;28;20030;-75
2022/02/15 08:16:17;;;;;;;55.55;30.15;;;2.10;99.90;;;;;;5013891;28;20022;-75
2022/02/15 08:18:43;;;;;;;67.78;32.80;;;2.30;99.90;;;;;;5013541;28;20471;-75
2022/02/15 08:21:10;;;;;;;60.50;28.00;;;2.40;99.90;;;;;;5014869;28;20029;-81
2022/02/15 08:23:36;;;;;;;50.50;27.55;;;2.60;99.90;;;;;;5013552;28;20073;-75
2022/02/15 08:26:03;;;;;;;52.58;25.63;;;2.70;99.90;;;;;;5013592;28;20030;-81
2022/02/15 08:28:29;;;;;;;46.13;22.38;;;2.90;99.90;;;;;;5014692;28;20054;-81
2022/02/15 08:30:55;;;;;;;39.45;20.65;;;3.00;99.90;;;;;;5013604;28;20034;-75
2022/02/15 08:33:20;;;;;;;45.47;22.63;;;3.10;99.90;;;;;;5014611;28;20014;-75
2022/02/15 08:35:46;;;;;;;45.80;22.05;;;3.20;99.90;;;;;;5013461;28;20022;-76
2022/02/15 08:38:11;;;;;;;39.25;20.90;;;3.30;99.90;;;;;;5013395;28;20116;-75
2022/02/15 08:40:37;;;;;;;41.15;22.58;;;3.40;99.90;;;;;;5014467;28;20052;-76
2022/02/15 08:43:03;;;;;;;40.50;21.50;;;3.50;99.90;;;;;;5032842;28;20030;-75
2022/02/15 08:45:28;;;;;;;38.72;22.67;;;3.50;99.90;;;;;;5033031;28;20018;-76
2022/02/15 08:47:54;;;;;;;44.35;24.13;;;3.60;99.90;;;;;;5033010;28;20083;-73
2022/02/15 08:50:20;;;;;;;50.88;27.08;;;3.70;99.90;;;;;;5034053;28;20068;-77
2022/02/15 08:52:45;;;;;;;47.85;28.63;;;3.80;97.80;;;;;;5032652;28;20025;-73
2022/02/15 08:55:11;;;;;;;47.70;24.73;;;3.80;97.40;;;;;;5032914;28;20064;-72
2022/02/15 08:57:37;;;;;;;54.47;26.25;;;3.90;97.30;;;;;;5032959;28;20112;-78
2022/02/15 09:00:05;;;;;;;54.00;27.73;;;4.00;97.90;;;;;;5033000;28;20164;-73
2022/02/15 09:02:31;;;;;;;45.10;23.50;;;4.10;97.30;;;;;;5034181;28;20029;-74
2022/02/15 09:04:56;;;;;;;43.60;23.52;;;4.20;95.80;;;;;;5034032;28;20532;-78
2022/02/15 09:07:22;;;;;;;46.95;25.17;;;4.20;94.30;;;;;;5034056;28;20445;-72
2022/02/15 09:09:49;;;;;;;49.65;25.30;;;4.30;94.10;;;;;;5032801;28;20064;-78
2022/02/15 09:12:15;;;;;;;42.20;22.50;;;4.40;93.40;;;;;;5032725;28;20014;-73
2022/02/15 09:14:41;;;;;;;54.40;24.33;;;4.50;91.90;;;;;;5033912;28;20061;-73
2022/02/15 09:17:06;;;;;;;38.63;22.52;;;4.60;91.10;;;;;;5033883;28;20038;-78
2022/02/15 09:19:36;;;;;;;50.17;25.23;;;4.60;89.00;;;;;;5033907;28;20072;-73
2022/02/15 09:22:03;;;;;;;52.50;27.60;;;4.70;88.70;;;;;;5032553;28;20014;-72
2022/02/15 09:24:30;;;;;;;40.53;22.88;;;4.80;89.50;;;;;;5032584;28;20037;-72
2022/02/15 09:26:56;;;;;;;42.22;21.13;;;4.80;88.70;;;;;;5032518;28;20053;-72
2022/02/15 09:29:22;;;;;;;41.05;20.65;;;4.90;88.90;;;;;;5032498;28;20203;-73
2022/02/15 09:31:47;;;;;;;43.22;21.63;;;4.90;87.50;;;;;;5032290;28;20127;-77
2022/02/15 09:34:13;;;;;;;35.35;19.77;;;5.00;86.70;;;;;;5032464;28;20049;-72
2022/02/15 09:36:39;;;;;;;47.50;24.17;;;5.00;85.70;;;;;;5032365;28;20505;-73
2022/02/15 09:39:06;;;;;;;36.55;20.45;;;5.20;86.80;;;;;;5032534;28;20056;-78
2022/02/15 09:41:35;;;;;;;32.38;18.02;;;5.30;85.40;;;;;;5032007;28;20025;-72
2022/02/15 09:44:05;;;;;;;30.45;18.20;;;5.40;83.40;;;;;;5033581;28;20036;-72
2022/02/15 09:46:31;;;;;;;32.25;17.50;;;5.40;81.60;;;;;;5032091;28;20021;-77
2022/02/15 09:48:57;;;;;;;30.67;18.02;;;5.50;80.40;;;;;;5033391;28;20017;-78
2022/02/15 09:51:25;;;;;;;34.30;19.13;;;5.50;80.40;;;;;;5032094;28;20144;-72
2022/02/15 09:53:51;;;;;;;31.15;18.30;;;5.50;79.80;;;;;;5033506;28;20045;-73
2022/02/15 09:56:17;;;;;;;35.80;20.58;;;5.60;80.30;;;;;;5033473;28;20025;-72
2022/02/15 09:58:42;;;;;;;35.03;18.35;;;5.60;79.10;;;;;;5033476;28;20026;-72
2022/02/15 10:01:15;;;;;;;36.17;20.80;;;5.60;79.50;;;;;;5032116;28;20024;-73
2022/02/15 10:03:58;;;;;;;31.88;18.73;;;5.70;78.60;;;;;;5033495;28;20025;-72
2022/02/15 10:06:31;;;;;;;30.63;18.35;;;5.80;78.90;;;;;;5032048;28;20018;-77
2022/02/15 10:09:02;;;;;;;36.53;20.10;;;6.00;78.60;;;;;;5032112;28;20434;-74
2022/02/15 10:11:39;;;;;;;35.03;20.83;;;6.10;78.00;;;;;;5033028;28;20033;-73
2022/02/15 10:14:06;;;;;;;35.20;19.48;;;6.20;75.50;;;;;;5033319;28;20030;-77
2022/02/15 10:16:43;;;;;;;30.95;19.02;;;6.20;75.10;;;;;;5033165;28;20025;-73
2022/02/15 10:19:08;;;;;;;32.50;18.17;;;6.30;74.90;;;;;;5033342;28;20487;-73
2022/02/15 10:21:39;;;;;;;31.42;18.27;;;6.50;74.60;;;;;;5031779;28;20029;-77
2022/02/15 10:24:13;;;;;;;34.60;17.02;;;6.50;74.30;;;;;;5033159;28;20029;-77
2022/02/15 10:26:39;;;;;;;28.27;16.77;;;6.50;73.30;;;;;;5032665;28;20024;-73
2022/02/15 10:29:04;;;;;;;32.90;18.75;;;6.60;73.20;;;;;;5033061;28;20394;-77
2022/02/15 10:31:39;;;;;;;33.90;19.63;;;6.70;73.50;;;;;;5033019;28;20195;-74
2022/02/15 10:34:05;;;;;;;33.08;17.40;;;6.80;72.50;;;;;;5032884;28;20483;-75
2022/02/15 10:36:31;;;;;;;34.05;17.30;;;6.90;71.50;;;;;;5031735;28;20025;-75
2022/02/15 10:38:57;;;;;;;30.55;17.00;;;6.90;71.30;;;;;;5032760;28;20022;-80
2022/02/15 10:41:23;;;;;;;29.27;16.55;;;6.90;70.20;;;;;;5031649;28;20026;-75
2022/02/15 10:43:51;;;;;;;27.15;15.90;;;7.00;71.10;;;;;;5033017;28;20030;-75
2022/02/15 10:46:19;;;;;;;28.65;15.82;;;7.00;69.70;;;;;;5031643;28;20024;-80
2022/02/15 10:48:46;;;;;;;28.65;15.20;;;7.20;70.20;;;;;;5031668;28;20029;-75
2022/02/15 10:51:13;;;;;;;26.42;16.77;;;7.20;69.10;;;;;;5031427;28;20506;-78
2022/02/15 10:53:39;;;;;;;33.85;18.83;;;7.40;69.00;;;;;;5033325;28;20497;-80
2022/02/15 10:56:05;;;;;;;28.58;18.60;;;7.50;68.50;;;;;;5035459;28;20533;-79
2022/02/15 10:58:32;;;;;;;32.17;18.17;;;7.60;68.20;;;;;;5035228;28;20017;-75
2022/02/15 11:01:00;;;;;;;31.35;17.80;;;7.60;67.70;;;;;;5035194;28;20025;-76
2022/02/15 11:03:30;;;;;;;34.72;18.15;;;7.70;67.40;;;;;;5035195;28;20029;-75
2022/02/15 11:05:56;;;;;;;27.05;17.13;;;7.80;67.40;;;;;;5035246;28;20025;-75
2022/02/15 11:08:23;;;;;;;42.70;20.20;;;7.80;66.50;;;;;;5036343;28;20083;-75
2022/02/15 11:11:05;;;;;;;31.70;20.52;;;7.70;67.50;;;;;;5036252;28;20483;-80
2022/02/15 11:13:34;;;;;;;28.52;18.65;;;7.70;67.40;;;;;;5035128;28;20437;-77
2022/02/15 11:16:02;;;;;;;37.03;20.05;;;7.60;67.70;;;;;;5034843;28;20115;-75
2022/02/15 11:18:30;;;;;;;30.38;18.35;;;7.60;68.00;;;;;;5034946;28;20029;-75
2022/02/15 11:20:58;;;;;;;38.88;19.55;;;7.60;68.10;;;;;;5034923;28;20480;-75
2022/02/15 11:23:36;;;;;;;36.55;19.27;;;7.70;67.80;;;;;;5036067;28;20462;-79
2022/02/15 11:26:17;;;;;;;34.17;19.10;;;7.80;68.20;;;;;;5034780;28;20112;-75
2022/02/15 11:28:51;;;;;;;36.70;21.55;;;7.90;68.30;;;;;;5035226;28;20041;-75
2022/02/15 11:31:39;;;;;;;35.10;19.58;;;8.00;67.60;;;;;;5034486;28;20053;-76
2022/02/15 11:34:07;;;;;;;30.15;17.85;;;8.10;66.90;;;;;;5034601;28;20036;-80
2022/02/15 11:36:43;;;;;;;34.67;18.83;;;8.10;67.00;;;;;;5035764;28;20049;-80
2022/02/15 11:39:14;;;;;;;28.63;17.88;;;8.10;66.50;;;;;;5034577;28;20025;-76
2022/02/15 11:41:49;;;;;;;36.47;17.67;;;8.20;66.10;;;;;;5035515;28;20091;-75
2022/02/15 11:44:15;;;;;;;33.05;18.17;;;8.30;66.50;;;;;;5034433;28;20029;-75
2022/02/15 11:46:46;;;;;;;32.30;18.20;;;8.40;66.10;;;;;;5034359;28;20022;-79
2022/02/15 11:49:14;;;;;;;40.67;19.73;;;8.40;65.00;;;;;;5035648;28;20032;-75
2022/02/15 11:51:42;;;;;;;31.08;16.85;;;8.50;64.80;;;;;;5034173;28;20053;-80
2022/02/15 11:54:26;;;;;;;30.42;16.52;;;8.60;65.20;;;;;;5035433;28;20386;-80
2022/02/15 11:56:53;;;;;;;31.10;16.85;;;8.70;64.10;;;;;;5035399;28;20066;-80
2022/02/15 11:59:25;;;;;;;32.35;17.35;;;8.80;64.00;;;;;;5035452;28;20030;-79
2022/02/15 12:01:59;;;;;;;30.42;17.58;;;8.90;64.00;;;;;;5033939;28;20486;-79
2022/02/15 12:04:25;;;;;;;36.65;17.35;;;8.90;63.90;;;;;;5033769;28;20479;-75
2022/02/15 12:06:51;;;;;;;28.92;16.98;;;9.00;63.80;;;;;;5033862;28;20040;-75
2022/02/15 12:09:24;;;;;;;28.40;16.73;;;9.00;62.90;;;;;;5035237;28;20029;-78
2022/02/15 12:11:50;;;;;;;31.25;17.63;;;9.00;63.00;;;;;;5035389;28;20037;-75
2022/02/15 12:14:22;;;;;;;29.85;17.48;;;9.00;62.60;;;;;;5035202;28;20422;-76
2022/02/15 12:16:58;;;;;;;31.33;17.55;;;9.00;62.30;;;;;;5033943;28;20095;-75
2022/02/15 12:19:35;;;;;;;29.85;17.33;;;9.10;62.70;;;;;;5033759;28;20040;-75
2022/02/15 12:22:07;;;;;;;29.02;17.63;;;9.10;62.70;;;;;;5035027;28;20052;-80
2022/02/15 12:24:33;;;;;;;32.83;18.53;;;9.10;62.10;;;;;;5034955;28;20021;-75
2022/02/15 12:27:03;;;;;;;27.48;17.40;;;8.90;61.80;;;;;;5033540;28;20271;-75
2022/02/15 12:29:28;;;;;;;26.17;15.80;;;8.90;62.50;;;;;;5033601;28;20033;-75
2022/02/15 12:31:59;;;;;;;29.50;15.52;;;8.90;62.80;;;;;;5034764;28;20041;-79
2022/02/15 12:34:26;;;;;;;34.78;22.30;;;8.90;63.50;;;;;;5034839;28;20076;-75